MSC Ela — H3MJ — position and weather

sailwx.info

Track history (hours):
 
Tides and Currents Weather Stations Pressure Air Temp Water Temp Dewpoint Dewpoint Depression Visibility Wind Speed Wind Dir Waves Ship Positions

MSC Ela

Last reported at 2017-Nov-17 13:59 UTC. Time now 2017-Nov-17 17:55 UTC.
Position N 43°10' E 006°58'.

Length 294 m; draft 8.6 m.

Type: Ship (hazmat cat A). MMSI: 353934000.

Date/timePositionNaut miles runAvg speedWind from/ knotsBaromVisibWave heightAir tempDewpointWater temp
2017-Nov-17 13:59N 43°10' E 006°58'1021.1
2017-Nov-17 13:30N 43°16' E 007°10'1121.8
2017-Nov-17 13:00N 43°22' E 007°22'1121.5
2017-Nov-17 12:29N 43°29' E 007°34'4021.0
2017-Nov-17 10:34N 43°55' E 008°17'321.0
2017-Nov-17 10:24N 43°58' E 008°19'821.2
2017-Nov-17 10:00N 44°05' E 008°26'1019.0
2017-Nov-17 09:30N 44°12' E 008°33'715.0
2017-Nov-17 09:00N 44°19' E 008°39'510.7
2017-Nov-17 08:30N 44°23' E 008°43'3 6.8
2017-Nov-17 08:01N 44°25' E 008°47'0 0.3
2017-Nov-17 07:29N 44°25' E 008°48'0 0.0
2017-Nov-17 06:59N 44°25' E 008°48'0 0.0
2017-Nov-17 06:29N 44°25' E 008°48'0 0.0
2017-Nov-17 05:59N 44°25' E 008°48'0 0.0
2017-Nov-17 05:29N 44°25' E 008°48'0 0.0
2017-Nov-17 04:59N 44°25' E 008°48'0 0.0
2017-Nov-17 04:29N 44°25' E 008°48'0 0.0
2017-Nov-17 03:59N 44°25' E 008°48'0 0.0
2017-Nov-17 03:29N 44°25' E 008°48'0 0.0
2017-Nov-17 02:59N 44°25' E 008°48'0 0.0
2017-Nov-17 02:29N 44°25' E 008°48'0 0.0
2017-Nov-17 01:59N 44°25' E 008°48'0 0.0
2017-Nov-17 01:29N 44°25' E 008°48'0 0.0
2017-Nov-17 00:59N 44°25' E 008°48'0 0.0
2017-Nov-17 00:29N 44°25' E 008°48'0 0.0
2017-Nov-16 23:59N 44°25' E 008°48'0 0.0
2017-Nov-16 23:29N 44°25' E 008°48'0 0.0
2017-Nov-16 22:59N 44°25' E 008°48'0 0.0
2017-Nov-16 22:29N 44°25' E 008°48'0 0.0
2017-Nov-16 21:59N 44°25' E 008°48'0 0.0
2017-Nov-16 21:29N 44°25' E 008°48'0 0.0
2017-Nov-16 20:59N 44°25' E 008°48'0 0.0
2017-Nov-16 20:29N 44°25' E 008°48'0 0.0
2017-Nov-16 19:59N 44°25' E 008°48'0 0.0
2017-Nov-16 19:29N 44°25' E 008°48'0 0.0
2017-Nov-16 18:59N 44°25' E 008°48'0 0.0
2017-Nov-16 18:29N 44°25' E 008°48'0 0.0
2017-Nov-16 17:59N 44°25' E 008°48'0 0.0
2017-Nov-16 17:29N 44°25' E 008°48'0 0.0
2017-Nov-16 16:59N 44°25' E 008°48'0 0.0
2017-Nov-16 16:29N 44°25' E 008°48'0 0.0
2017-Nov-16 15:59N 44°25' E 008°48'0 0.0
2017-Nov-16 15:29N 44°25' E 008°48'0 0.5
2017-Nov-16 15:00N 44°25' E 008°47'3 5.4
2017-Nov-16 14:31N 44°23' E 008°44'3 6.8
2017-Nov-16 14:00N 44°20' E 008°45'816.0
2017-Nov-16 13:30N 44°14' E 008°52'816.9
2017-Nov-16 13:01N 44°08' E 009°00'714.9
2017-Nov-16 12:30N 44°02' E 009°07'816.2
2017-Nov-16 12:00N 43°57' E 009°15'816.7
2017-Nov-16 11:30N 43°51' E 009°23'816.2
2017-Nov-16 10:59N 43°44' E 009°31'816.1
2017-Nov-16 10:30N 43°39' E 009°38'816.0
2017-Nov-16 10:00N 43°33' E 009°47'816.2
2017-Nov-16 09:30N 43°30' E 009°57'815.5
2017-Nov-16 08:59N 43°31' E 010°08'5 9.7
2017-Nov-16 08:30N 43°32' E 010°14'3 5.6
2017-Nov-16 08:00N 43°33' E 010°18'1 2.6
2017-Nov-16 07:30N 43°35' E 010°18'0 0.0
2017-Nov-16 06:48N 43°35' E 010°18'0 0.0
2017-Nov-16 06:27N 43°35' E 010°18'0 0.0
2017-Nov-16 05:54N 43°35' E 010°18'0 0.0
2017-Nov-16 05:30N 43°35' E 010°18'0 0.0
2017-Nov-16 04:54N 43°35' E 010°18'0 0.0
2017-Nov-16 04:30N 43°35' E 010°18'0 0.0
2017-Nov-16 04:00N 43°35' E 010°18'0 0.0
2017-Nov-16 03:24N 43°35' E 010°18'0 0.0
2017-Nov-16 03:00N 43°35' E 010°18'0 0.0
2017-Nov-16 02:21N 43°35' E 010°18'0 0.0
2017-Nov-16 02:00N 43°35' E 010°18'0 0.0
2017-Nov-16 01:30N 43°35' E 010°18'0 0.0
2017-Nov-16 00:57N 43°35' E 010°18'0 0.0
2017-Nov-16 00:30N 43°35' E 010°18'0 0.0
2017-Nov-15 23:57N 43°35' E 010°18'0 0.0
2017-Nov-15 23:30N 43°35' E 010°18'0 0.0
2017-Nov-15 22:57N 43°35' E 010°18'0 0.0
2017-Nov-15 22:30N 43°35' E 010°18'0 0.0
2017-Nov-15 22:00N 43°35' E 010°18'0 0.0
2017-Nov-15 21:30N 43°35' E 010°18'0 0.0
2017-Nov-15 21:00N 43°35' E 010°18'0 0.0
2017-Nov-15 20:27N 43°35' E 010°18'0 0.0
2017-Nov-15 20:00N 43°35' E 010°18'0 0.0
2017-Nov-15 19:24N 43°35' E 010°18'0 0.0
2017-Nov-15 19:00N 43°35' E 010°18'0 0.0
2017-Nov-15 18:30N 43°35' E 010°18'0 0.0
2017-Nov-15 17:57N 43°35' E 010°18'0 0.0
2017-Nov-15 17:30N 43°35' E 010°18'0 0.0
2017-Nov-15 17:00N 43°35' E 010°18'0 0.0
2017-Nov-15 16:30N 43°35' E 010°18'0 0.0
2017-Nov-15 15:57N 43°35' E 010°18'1 2.1
2017-Nov-15 15:30N 43°34' E 010°18'3 5.4
2017-Nov-15 15:00N 43°32' E 010°16'3 5.8
2017-Nov-15 14:30N 43°29' E 010°13'612.3
2017-Nov-15 14:00N 43°25' E 010°07'612.5
2017-Nov-15 13:30N 43°21' E 010°01'612.0
2017-Nov-15 13:00N 43°17' E 009°55'612.1
2017-Nov-15 12:30N 43°13' E 009°49'713.3
2017-Nov-15 12:01N 43°08' E 009°42'714.6
2017-Nov-15 11:30N 43°01' E 009°40'815.7
2017-Nov-15 11:00N 42°53' E 009°43'1316.2
2017-Nov-15 10:14N 42°41' E 009°47'418.0
2017-Nov-15 10:00N 42°37' E 009°49'36318.5
2017-Nov-14 14:21N 38°33' E 015°43'617.8
2017-Nov-14 14:00N 38°30' E 015°49'5 9.6
2017-Nov-14 13:30N 38°27' E 015°54'1 1.5
2017-Nov-14 12:46N 38°28' E 015°55'0 0.0
2017-Nov-14 12:28N 38°28' E 015°55'0 0.0
2017-Nov-14 11:55N 38°28' E 015°55'0 0.0
2017-Nov-14 11:28N 38°28' E 015°55'0 0.0
2017-Nov-14 10:58N 38°28' E 015°55'0 0.0
2017-Nov-14 10:28N 38°28' E 015°55'0 0.0
2017-Nov-14 09:58N 38°28' E 015°55'0 0.0
2017-Nov-14 09:22N 38°28' E 015°55'0 0.0
2017-Nov-14 08:58N 38°28' E 015°55'0 0.0
2017-Nov-14 08:25N 38°28' E 015°55'0 0.0
2017-Nov-14 07:58N 38°28' E 015°55'0 0.0
2017-Nov-14 07:19N 38°28' E 015°55'0 0.0
2017-Nov-14 06:58N 38°28' E 015°55'0 0.0
2017-Nov-14 06:28N 38°28' E 015°55'0 0.0
2017-Nov-14 05:55N 38°28' E 015°55'0 0.0
2017-Nov-14 05:28N 38°28' E 015°55'0 0.0
2017-Nov-14 04:58N 38°28' E 015°55'0 0.0
2017-Nov-14 04:28N 38°28' E 015°55'0 0.0
2017-Nov-14 03:58N 38°28' E 015°55'0 0.0
2017-Nov-14 03:28N 38°28' E 015°55'0 0.0
2017-Nov-14 02:58N 38°28' E 015°55'0 0.0
2017-Nov-14 02:25N 38°28' E 015°55'0 0.0
2017-Nov-14 01:58N 38°28' E 015°55'0 0.0
2017-Nov-14 01:28N 38°28' E 015°55'0 0.0
2017-Nov-14 00:58N 38°28' E 015°55'0 0.0
2017-Nov-14 00:28N 38°28' E 015°55'0 0.0
2017-Nov-13 23:58N 38°28' E 015°55'0 0.0
2017-Nov-13 23:28N 38°28' E 015°55'0 0.0
2017-Nov-13 22:52N 38°28' E 015°55'0 0.0
2017-Nov-13 22:28N 38°28' E 015°55'0 0.0
2017-Nov-13 21:58N 38°28' E 015°55'53 2.7
2017-Nov-13 02:01N 38°18' E 014°48'5 9.9
2017-Nov-13 01:31N 38°18' E 014°42'5 9.9
2017-Nov-13 00:59N 38°18' E 014°35'5 9.8
2017-Nov-13 00:30N 38°19' E 014°29'5 9.6
2017-Nov-13 00:00N 38°19' E 014°23'5 9.6
2017-Nov-12 23:30N 38°19' E 014°17'5 9.9
2017-Nov-12 23:00N 38°20' E 014°11'510.2
2017-Nov-12 22:30N 38°20' E 014°04'510.2
2017-Nov-12 22:00N 38°20' E 013°58'510.1
2017-Nov-12 21:30N 38°21' E 013°51'510.1
2017-Nov-12 21:00N 38°21' E 013°45'510.0
2017-Nov-12 20:30N 38°21' E 013°38'510.3
2017-Nov-12 20:00N 38°22' E 013°32'510.3
2017-Nov-12 19:30N 38°22' E 013°25'510.1
2017-Nov-12 19:00N 38°22' E 013°19'510.1
2017-Nov-12 18:30N 38°23' E 013°12'510.1
2017-Nov-12 18:00N 38°23' E 013°06'510.1
2017-Nov-12 17:30N 38°23' E 012°60'510.3
2017-Nov-12 17:00N 38°22' E 012°53'510.3
2017-Nov-12 16:30N 38°22' E 012°47'510.1
2017-Nov-12 16:00N 38°21' E 012°40'510.0
2017-Nov-12 15:29N 38°20' E 012°34'  
2017-Nov-09 21:24N 36°01' W 005°09'615.4
2017-Nov-09 21:00N 35°59' W 005°16'816.3
2017-Nov-09 20:30N 35°57' W 005°26'  
Track history (hours):
 
Tides and Currents Weather Stations Pressure Air Temp Water Temp Dewpoint Dewpoint Depression Visibility Wind Speed Wind Dir Waves Ship Positions

MSC Ela

Last reported at 2017-Nov-17 13:59 UTC. Time now 2017-Nov-17 17:55 UTC.
Position N 43°10' E 006°58'.

Length 294 m; draft 8.6 m.

Type: Ship (hazmat cat A). MMSI: 353934000.

Date/timePositionNaut miles runAvg speedWind from/ knotsBaromVisibWave heightAir tempDewpointWater temp
2017-Nov-17 13:59N 43°10' E 006°58'1021.1
2017-Nov-17 13:30N 43°16' E 007°10'1121.8
2017-Nov-17 13:00N 43°22' E 007°22'1121.5
2017-Nov-17 12:29N 43°29' E 007°34'4021.0
2017-Nov-17 10:34N 43°55' E 008°17'321.0
2017-Nov-17 10:24N 43°58' E 008°19'821.2
2017-Nov-17 10:00N 44°05' E 008°26'1019.0
2017-Nov-17 09:30N 44°12' E 008°33'715.0
2017-Nov-17 09:00N 44°19' E 008°39'510.7
2017-Nov-17 08:30N 44°23' E 008°43'3 6.8
2017-Nov-17 08:01N 44°25' E 008°47'0 0.3
2017-Nov-17 07:29N 44°25' E 008°48'0 0.0
2017-Nov-17 06:59N 44°25' E 008°48'0 0.0
2017-Nov-17 06:29N 44°25' E 008°48'0 0.0
2017-Nov-17 05:59N 44°25' E 008°48'0 0.0
2017-Nov-17 05:29N 44°25' E 008°48'0 0.0
2017-Nov-17 04:59N 44°25' E 008°48'0 0.0
2017-Nov-17 04:29N 44°25' E 008°48'0 0.0
2017-Nov-17 03:59N 44°25' E 008°48'0 0.0
2017-Nov-17 03:29N 44°25' E 008°48'0 0.0
2017-Nov-17 02:59N 44°25' E 008°48'0 0.0
2017-Nov-17 02:29N 44°25' E 008°48'0 0.0
2017-Nov-17 01:59N 44°25' E 008°48'0 0.0
2017-Nov-17 01:29N 44°25' E 008°48'0 0.0
2017-Nov-17 00:59N 44°25' E 008°48'0 0.0
2017-Nov-17 00:29N 44°25' E 008°48'0 0.0
2017-Nov-16 23:59N 44°25' E 008°48'0 0.0
2017-Nov-16 23:29N 44°25' E 008°48'0 0.0
2017-Nov-16 22:59N 44°25' E 008°48'0 0.0
2017-Nov-16 22:29N 44°25' E 008°48'0 0.0
2017-Nov-16 21:59N 44°25' E 008°48'0 0.0
2017-Nov-16 21:29N 44°25' E 008°48'0 0.0
2017-Nov-16 20:59N 44°25' E 008°48'0 0.0
2017-Nov-16 20:29N 44°25' E 008°48'0 0.0
2017-Nov-16 19:59N 44°25' E 008°48'0 0.0
2017-Nov-16 19:29N 44°25' E 008°48'0 0.0
2017-Nov-16 18:59N 44°25' E 008°48'0 0.0
2017-Nov-16 18:29N 44°25' E 008°48'0 0.0
2017-Nov-16 17:59N 44°25' E 008°48'0 0.0
2017-Nov-16 17:29N 44°25' E 008°48'0 0.0
2017-Nov-16 16:59N 44°25' E 008°48'0 0.0
2017-Nov-16 16:29N 44°25' E 008°48'0 0.0
2017-Nov-16 15:59N 44°25' E 008°48'0 0.0
2017-Nov-16 15:29N 44°25' E 008°48'0 0.5
2017-Nov-16 15:00N 44°25' E 008°47'3 5.4
2017-Nov-16 14:31N 44°23' E 008°44'3 6.8
2017-Nov-16 14:00N 44°20' E 008°45'816.0
2017-Nov-16 13:30N 44°14' E 008°52'816.9
2017-Nov-16 13:01N 44°08' E 009°00'714.9
2017-Nov-16 12:30N 44°02' E 009°07'816.2
2017-Nov-16 12:00N 43°57' E 009°15'816.7
2017-Nov-16 11:30N 43°51' E 009°23'816.2
2017-Nov-16 10:59N 43°44' E 009°31'816.1
2017-Nov-16 10:30N 43°39' E 009°38'816.0
2017-Nov-16 10:00N 43°33' E 009°47'816.2
2017-Nov-16 09:30N 43°30' E 009°57'815.5
2017-Nov-16 08:59N 43°31' E 010°08'5 9.7
2017-Nov-16 08:30N 43°32' E 010°14'3 5.6
2017-Nov-16 08:00N 43°33' E 010°18'1 2.6
2017-Nov-16 07:30N 43°35' E 010°18'0 0.0
2017-Nov-16 06:48N 43°35' E 010°18'0 0.0
2017-Nov-16 06:27N 43°35' E 010°18'0 0.0
2017-Nov-16 05:54N 43°35' E 010°18'0 0.0
2017-Nov-16 05:30N 43°35' E 010°18'0 0.0
2017-Nov-16 04:54N 43°35' E 010°18'0 0.0
2017-Nov-16 04:30N 43°35' E 010°18'0 0.0
2017-Nov-16 04:00N 43°35' E 010°18'0 0.0
2017-Nov-16 03:24N 43°35' E 010°18'0 0.0
2017-Nov-16 03:00N 43°35' E 010°18'0 0.0
2017-Nov-16 02:21N 43°35' E 010°18'0 0.0
2017-Nov-16 02:00N 43°35' E 010°18'0 0.0
2017-Nov-16 01:30N 43°35' E 010°18'0 0.0
2017-Nov-16 00:57N 43°35' E 010°18'0 0.0
2017-Nov-16 00:30N 43°35' E 010°18'0 0.0
2017-Nov-15 23:57N 43°35' E 010°18'0 0.0
2017-Nov-15 23:30N 43°35' E 010°18'0 0.0
2017-Nov-15 22:57N 43°35' E 010°18'0 0.0
2017-Nov-15 22:30N 43°35' E 010°18'0 0.0
2017-Nov-15 22:00N 43°35' E 010°18'0 0.0
2017-Nov-15 21:30N 43°35' E 010°18'0 0.0
2017-Nov-15 21:00N 43°35' E 010°18'0 0.0
2017-Nov-15 20:27N 43°35' E 010°18'0 0.0
2017-Nov-15 20:00N 43°35' E 010°18'0 0.0
2017-Nov-15 19:24N 43°35' E 010°18'0 0.0
2017-Nov-15 19:00N 43°35' E 010°18'0 0.0
2017-Nov-15 18:30N 43°35' E 010°18'0 0.0
2017-Nov-15 17:57N 43°35' E 010°18'0 0.0
2017-Nov-15 17:30N 43°35' E 010°18'0 0.0
2017-Nov-15 17:00N 43°35' E 010°18'0 0.0
2017-Nov-15 16:30N 43°35' E 010°18'0 0.0
2017-Nov-15 15:57N 43°35' E 010°18'1 2.1
2017-Nov-15 15:30N 43°34' E 010°18'3 5.4
2017-Nov-15 15:00N 43°32' E 010°16'3 5.8
2017-Nov-15 14:30N 43°29' E 010°13'612.3
2017-Nov-15 14:00N 43°25' E 010°07'612.5
2017-Nov-15 13:30N 43°21' E 010°01'612.0
2017-Nov-15 13:00N 43°17' E 009°55'612.1
2017-Nov-15 12:30N 43°13' E 009°49'713.3
2017-Nov-15 12:01N 43°08' E 009°42'714.6
2017-Nov-15 11:30N 43°01' E 009°40'815.7
2017-Nov-15 11:00N 42°53' E 009°43'1316.2
2017-Nov-15 10:14N 42°41' E 009°47'418.0
2017-Nov-15 10:00N 42°37' E 009°49'36318.5
2017-Nov-14 14:21N 38°33' E 015°43'617.8
2017-Nov-14 14:00N 38°30' E 015°49'5 9.6
2017-Nov-14 13:30N 38°27' E 015°54'1 1.5
2017-Nov-14 12:46N 38°28' E 015°55'0 0.0
2017-Nov-14 12:28N 38°28' E 015°55'0 0.0
2017-Nov-14 11:55N 38°28' E 015°55'0 0.0
2017-Nov-14 11:28N 38°28' E 015°55'0 0.0
2017-Nov-14 10:58N 38°28' E 015°55'0 0.0
2017-Nov-14 10:28N 38°28' E 015°55'0 0.0
2017-Nov-14 09:58N 38°28' E 015°55'0 0.0
2017-Nov-14 09:22N 38°28' E 015°55'0 0.0
2017-Nov-14 08:58N 38°28' E 015°55'0 0.0
2017-Nov-14 08:25N 38°28' E 015°55'0 0.0
2017-Nov-14 07:58N 38°28' E 015°55'0 0.0
2017-Nov-14 07:19N 38°28' E 015°55'0 0.0
2017-Nov-14 06:58N 38°28' E 015°55'0 0.0
2017-Nov-14 06:28N 38°28' E 015°55'0 0.0
2017-Nov-14 05:55N 38°28' E 015°55'0 0.0
2017-Nov-14 05:28N 38°28' E 015°55'0 0.0
2017-Nov-14 04:58N 38°28' E 015°55'0 0.0
2017-Nov-14 04:28N 38°28' E 015°55'0 0.0
2017-Nov-14 03:58N 38°28' E 015°55'0 0.0
2017-Nov-14 03:28N 38°28' E 015°55'0 0.0
2017-Nov-14 02:58N 38°28' E 015°55'0 0.0
2017-Nov-14 02:25N 38°28' E 015°55'0 0.0
2017-Nov-14 01:58N 38°28' E 015°55'0 0.0
2017-Nov-14 01:28N 38°28' E 015°55'0 0.0
2017-Nov-14 00:58N 38°28' E 015°55'0 0.0
2017-Nov-14 00:28N 38°28' E 015°55'0 0.0
2017-Nov-13 23:58N 38°28' E 015°55'0 0.0
2017-Nov-13 23:28N 38°28' E 015°55'0 0.0
2017-Nov-13 22:52N 38°28' E 015°55'0 0.0
2017-Nov-13 22:28N 38°28' E 015°55'0 0.0
2017-Nov-13 21:58N 38°28' E 015°55'53 2.7
2017-Nov-13 02:01N 38°18' E 014°48'5 9.9
2017-Nov-13 01:31N 38°18' E 014°42'5 9.9
2017-Nov-13 00:59N 38°18' E 014°35'5 9.8
2017-Nov-13 00:30N 38°19' E 014°29'5 9.6
2017-Nov-13 00:00N 38°19' E 014°23'5 9.6
2017-Nov-12 23:30N 38°19' E 014°17'5 9.9
2017-Nov-12 23:00N 38°20' E 014°11'510.2
2017-Nov-12 22:30N 38°20' E 014°04'510.2
2017-Nov-12 22:00N 38°20' E 013°58'510.1
2017-Nov-12 21:30N 38°21' E 013°51'510.1
2017-Nov-12 21:00N 38°21' E 013°45'510.0
2017-Nov-12 20:30N 38°21' E 013°38'510.3
2017-Nov-12 20:00N 38°22' E 013°32'510.3
2017-Nov-12 19:30N 38°22' E 013°25'510.1
2017-Nov-12 19:00N 38°22' E 013°19'510.1
2017-Nov-12 18:30N 38°23' E 013°12'510.1
2017-Nov-12 18:00N 38°23' E 013°06'510.1
2017-Nov-12 17:30N 38°23' E 012°60'510.3
2017-Nov-12 17:00N 38°22' E 012°53'510.3
2017-Nov-12 16:30N 38°22' E 012°47'510.1
2017-Nov-12 16:00N 38°21' E 012°40'510.0
2017-Nov-12 15:29N 38°20' E 012°34'  
2017-Nov-09 21:24N 36°01' W 005°09'615.4
2017-Nov-09 21:00N 35°59' W 005°16'816.3
2017-Nov-09 20:30N 35°57' W 005°26'  

Dump ship's entire track history